sensor_id;sensor_type;location;lat;lon;timestamp;pressure;altitude;pressure_sealevel;temperature;humidity
35307;BME280;21420;52.196;21.416;2022-11-20T00:01:12;100176.13;;;-6.49;66.91
35307;BME280;21420;52.196;21.416;2022-11-20T00:03:39;100181.70;;;-6.50;66.93
35307;BME280;21420;52.196;21.416;2022-11-20T00:06:10;100176.59;;;-6.52;66.96
35307;BME280;21420;52.196;21.416;2022-11-20T00:08:37;100184.52;;;-6.54;66.91
35307;BME280;21420;52.196;21.416;2022-11-20T00:11:08;100184.74;;;-6.56;66.94
35307;BME280;21420;52.196;21.416;2022-11-20T00:13:37;100191.65;;;-6.57;66.97
35307;BME280;21420;52.196;21.416;2022-11-20T00:16:06;100189.42;;;-6.60;66.96
35307;BME280;21420;52.196;21.416;2022-11-20T00:18:35;100190.75;;;-6.60;66.97
35307;BME280;21420;52.196;21.416;2022-11-20T00:21:10;100191.80;;;-6.61;67.02
35307;BME280;21420;52.196;21.416;2022-11-20T00:23:42;100185.14;;;-6.61;67.03
35307;BME280;21420;52.196;21.416;2022-11-20T00:26:11;100181.37;;;-6.63;67.05
35307;BME280;21420;52.196;21.416;2022-11-20T00:28:42;100177.59;;;-6.64;67.06
35307;BME280;21420;52.196;21.416;2022-11-20T00:31:12;100180.25;;;-6.64;67.08
35307;BME280;21420;52.196;21.416;2022-11-20T00:33:41;100174.86;;;-6.67;67.10
35307;BME280;21420;52.196;21.416;2022-11-20T00:36:10;100172.20;;;-6.67;67.15
35307;BME280;21420;52.196;21.416;2022-11-20T00:38:38;100172.45;;;-6.68;67.14
35307;BME280;21420;52.196;21.416;2022-11-20T00:41:07;100172.45;;;-6.68;67.18
35307;BME280;21420;52.196;21.416;2022-11-20T00:43:35;100177.25;;;-6.68;67.16
35307;BME280;21420;52.196;21.416;2022-11-20T00:46:10;100176.13;;;-6.70;67.15
35307;BME280;21420;52.196;21.416;2022-11-20T00:48:43;100178.52;;;-6.71;67.18
35307;BME280;21420;52.196;21.416;2022-11-20T00:51:11;100170.22;;;-6.72;67.17
35307;BME280;21420;52.196;21.416;2022-11-20T00:53:39;100172.30;;;-6.74;67.21
35307;BME280;21420;52.196;21.416;2022-11-20T00:56:09;100171.42;;;-6.77;67.21
35307;BME280;21420;52.196;21.416;2022-11-20T00:58:38;100159.13;;;-6.78;67.22
35307;BME280;21420;52.196;21.416;2022-11-20T01:01:09;100165.52;;;-6.79;67.23
35307;BME280;21420;52.196;21.416;2022-11-20T01:03:39;100165.14;;;-6.82;67.22
35307;BME280;21420;52.196;21.416;2022-11-20T01:06:13;100166.94;;;-6.85;67.24
35307;BME280;21420;52.196;21.416;2022-11-20T01:08:41;100166.88;;;-6.88;67.27
35307;BME280;21420;52.196;21.416;2022-11-20T01:11:14;100162.29;;;-6.90;67.32
35307;BME280;21420;52.196;21.416;2022-11-20T01:13:42;100164.14;;;-6.91;67.32
35307;BME280;21420;52.196;21.416;2022-11-20T01:16:11;100162.23;;;-6.93;67.34
35307;BME280;21420;52.196;21.416;2022-11-20T01:18:43;100161.11;;;-6.94;67.35
35307;BME280;21420;52.196;21.416;2022-11-20T01:21:13;100155.72;;;-6.97;67.37
35307;BME280;21420;52.196;21.416;2022-11-20T01:23:44;100149.81;;;-6.99;67.35
35307;BME280;21420;52.196;21.416;2022-11-20T01:26:16;100147.61;;;-7.02;67.34
35307;BME280;21420;52.196;21.416;2022-11-20T01:28:46;100149.68;;;-7.04;67.37
35307;BME280;21420;52.196;21.416;2022-11-20T01:31:19;100151.81;;;-7.03;67.43
35307;BME280;21420;52.196;21.416;2022-11-20T01:33:44;100150.42;;;-7.06;67.44
35307;BME280;21420;52.196;21.416;2022-11-20T01:36:13;100150.63;;;-7.07;67.46
35307;BME280;21420;52.196;21.416;2022-11-20T01:38:41;100147.17;;;-7.08;67.50
35307;BME280;21420;52.196;21.416;2022-11-20T01:41:08;100147.10;;;-7.10;67.49
35307;BME280;21420;52.196;21.416;2022-11-20T01:43:36;100147.84;;;-7.13;67.49
35307;BME280;21420;52.196;21.416;2022-11-20T01:46:18;100149.70;;;-7.13;67.50
35307;BME280;21420;52.196;21.416;2022-11-20T01:49:00;100146.52;;;-7.13;67.54
35307;BME280;21420;52.196;21.416;2022-11-20T01:51:44;100147.56;;;-7.14;67.55
35307;BME280;21420;52.196;21.416;2022-11-20T01:54:18;100140.08;;;-7.14;67.58
35307;BME280;21420;52.196;21.416;2022-11-20T01:56:46;100145.12;;;-7.15;67.60
35307;BME280;21420;52.196;21.416;2022-11-20T01:59:16;100141.66;;;-7.16;67.62
35307;BME280;21420;52.196;21.416;2022-11-20T02:01:43;100145.64;;;-7.16;67.64
35307;BME280;21420;52.196;21.416;2022-11-20T02:04:10;100144.53;;;-7.17;67.64
35307;BME280;21420;52.196;21.416;2022-11-20T02:06:42;100142.15;;;-7.16;67.69
35307;BME280;21420;52.196;21.416;2022-11-20T02:09:14;100141.55;;;-7.18;67.70
35307;BME280;21420;52.196;21.416;2022-11-20T02:11:40;100140.02;;;-7.17;67.74
35307;BME280;21420;52.196;21.416;2022-11-20T02:14:07;100135.28;;;-7.15;67.75
35307;BME280;21420;52.196;21.416;2022-11-20T02:16:43;100134.02;;;-7.12;67.77
35307;BME280;21420;52.196;21.416;2022-11-20T02:19:08;100131.66;;;-7.11;67.78
35307;BME280;21420;52.196;21.416;2022-11-20T02:24:19;100124.82;;;-7.07;67.84
35307;BME280;21420;52.196;21.416;2022-11-20T02:27:08;100120.61;;;-7.05;67.86
35307;BME280;21420;52.196;21.416;2022-11-20T02:32:25;100120.73;;;-7.00;67.92
35307;BME280;21420;52.196;21.416;2022-11-20T02:34:53;100126.50;;;-6.94;68.00
35307;BME280;21420;52.196;21.416;2022-11-20T02:37:20;100123.41;;;-6.91;68.02
35307;BME280;21420;52.196;21.416;2022-11-20T02:39:51;100121.30;;;-6.89;68.03
35307;BME280;21420;52.196;21.416;2022-11-20T02:42:18;100123.73;;;-6.87;68.05
35307;BME280;21420;52.196;21.416;2022-11-20T02:44:44;100124.64;;;-6.84;68.06
35307;BME280;21420;52.196;21.416;2022-11-20T02:47:10;100125.20;;;-6.82;68.07
35307;BME280;21420;52.196;21.416;2022-11-20T02:49:37;100126.89;;;-6.79;68.10
35307;BME280;21420;52.196;21.416;2022-11-20T02:52:03;100130.42;;;-6.76;68.11
35307;BME280;21420;52.196;21.416;2022-11-20T02:54:29;100131.59;;;-6.72;68.13
35307;BME280;21420;52.196;21.416;2022-11-20T02:56:56;100128.77;;;-6.67;68.13
35307;BME280;21420;52.196;21.416;2022-11-20T02:59:22;100136.24;;;-6.67;68.13
35307;BME280;21420;52.196;21.416;2022-11-20T03:01:48;100139.70;;;-6.66;68.14
35307;BME280;21420;52.196;21.416;2022-11-20T03:04:15;100146.16;;;-6.65;68.15
35307;BME280;21420;52.196;21.416;2022-11-20T03:06:41;100138.47;;;-6.64;68.19
35307;BME280;21420;52.196;21.416;2022-11-20T03:09:07;100138.53;;;-6.61;68.20
35307;BME280;21420;52.196;21.416;2022-11-20T03:11:33;100132.14;;;-6.60;68.21
35307;BME280;21420;52.196;21.416;2022-11-20T03:14:02;100131.40;;;-6.58;68.20
35307;BME280;21420;52.196;21.416;2022-11-20T03:19:04;100122.30;;;-6.60;68.19
35307;BME280;21420;52.196;21.416;2022-11-20T03:21:33;100124.41;;;-6.62;68.24
35307;BME280;21420;52.196;21.416;2022-11-20T03:24:00;100123.81;;;-6.64;68.24
35307;BME280;21420;52.196;21.416;2022-11-20T03:26:27;100123.23;;;-6.66;68.25
35307;BME280;21420;52.196;21.416;2022-11-20T03:28:55;100128.99;;;-6.69;68.22
35307;BME280;21420;52.196;21.416;2022-11-20T03:31:24;100127.60;;;-6.72;68.26
35307;BME280;21420;52.196;21.416;2022-11-20T03:33:52;100125.41;;;-6.75;68.26
35307;BME280;21420;52.196;21.416;2022-11-20T03:36:20;100125.63;;;-6.76;68.31
35307;BME280;21420;52.196;21.416;2022-11-20T03:38:47;100126.09;;;-6.79;68.33
35307;BME280;21420;52.196;21.416;2022-11-20T03:41:17;100128.45;;;-6.80;68.34
35307;BME280;21420;52.196;21.416;2022-11-20T03:43:52;100128.11;;;-6.84;68.32
35307;BME280;21420;52.196;21.416;2022-11-20T03:46:22;100126.71;;;-6.86;68.32
35307;BME280;21420;52.196;21.416;2022-11-20T03:48:49;100129.81;;;-6.89;68.32
35307;BME280;21420;52.196;21.416;2022-11-20T03:51:25;100126.28;;;-6.93;68.32
35307;BME280;21420;52.196;21.416;2022-11-20T03:53:51;100121.11;;;-6.97;68.34
35307;BME280;21420;52.196;21.416;2022-11-20T03:56:20;100122.07;;;-7.00;68.32
35307;BME280;21420;52.196;21.416;2022-11-20T03:58:49;100122.01;;;-7.03;68.37
35307;BME280;21420;52.196;21.416;2022-11-20T04:01:18;100119.75;;;-7.08;68.32
35307;BME280;21420;52.196;21.416;2022-11-20T04:03:46;100115.91;;;-7.13;68.30
35307;BME280;21420;52.196;21.416;2022-11-20T04:06:21;100113.61;;;-7.18;68.28
35307;BME280;21420;52.196;21.416;2022-11-20T04:08:49;100115.92;;;-7.22;68.27
35307;BME280;21420;52.196;21.416;2022-11-20T04:11:18;100113.42;;;-7.26;68.29
35307;BME280;21420;52.196;21.416;2022-11-20T04:13:55;100116.81;;;-7.28;68.31
35307;BME280;21420;52.196;21.416;2022-11-20T04:16:20;100107.16;;;-7.31;68.30
35307;BME280;21420;52.196;21.416;2022-11-20T04:18:52;100105.23;;;-7.34;68.31
35307;BME280;21420;52.196;21.416;2022-11-20T04:21:19;100105.17;;;-7.36;68.30
35307;BME280;21420;52.196;21.416;2022-11-20T04:23:45;100100.88;;;-7.37;68.32
35307;BME280;21420;52.196;21.416;2022-11-20T04:26:12;100099.27;;;-7.38;68.37
35307;BME280;21420;52.196;21.416;2022-11-20T04:28:38;100097.09;;;-7.39;68.38
35307;BME280;21420;52.196;21.416;2022-11-20T04:31:10;100092.30;;;-7.39;68.39
35307;BME280;21420;52.196;21.416;2022-11-20T04:33:38;100090.97;;;-7.39;68.39
35307;BME280;21420;52.196;21.416;2022-11-20T04:36:16;100086.17;;;-7.40;68.41
35307;BME280;21420;52.196;21.416;2022-11-20T04:38:44;100087.72;;;-7.41;68.43
35307;BME280;21420;52.196;21.416;2022-11-20T04:41:16;100087.97;;;-7.43;68.44
35307;BME280;21420;52.196;21.416;2022-11-20T04:43:49;100088.98;;;-7.44;68.46
35307;BME280;21420;52.196;21.416;2022-11-20T04:46:20;100091.64;;;-7.44;68.48
35307;BME280;21420;52.196;21.416;2022-11-20T04:48:48;100085.52;;;-7.44;68.50
35307;BME280;21420;52.196;21.416;2022-11-20T04:51:14;100089.79;;;-7.43;68.51
35307;BME280;21420;52.196;21.416;2022-11-20T04:53:41;100085.80;;;-7.43;68.53
35307;BME280;21420;52.196;21.416;2022-11-20T04:56:09;100086.33;;;-7.44;68.55
35307;BME280;21420;52.196;21.416;2022-11-20T04:58:37;100082.64;;;-7.43;68.57
35307;BME280;21420;52.196;21.416;2022-11-20T05:01:10;100070.36;;;-7.44;68.58
35307;BME280;21420;52.196;21.416;2022-11-20T05:03:42;100070.95;;;-7.42;68.59
35307;BME280;21420;52.196;21.416;2022-11-20T05:06:11;100073.61;;;-7.42;68.60
35307;BME280;21420;52.196;21.416;2022-11-20T05:08:39;100064.83;;;-7.42;68.59
35307;BME280;21420;52.196;21.416;2022-11-20T05:11:07;100068.30;;;-7.42;68.62
35307;BME280;21420;52.196;21.416;2022-11-20T05:13:35;100069.84;;;-7.43;68.62
35307;BME280;21420;52.196;21.416;2022-11-20T05:16:05;100068.51;;;-7.43;68.65
35307;BME280;21420;52.196;21.416;2022-11-20T05:18:34;100065.84;;;-7.43;68.65
35307;BME280;21420;52.196;21.416;2022-11-20T05:21:01;100056.53;;;-7.43;68.68
35307;BME280;21420;52.196;21.416;2022-11-20T05:23:28;100064.30;;;-7.42;68.73
35307;BME280;21420;52.196;21.416;2022-11-20T05:25:56;100069.09;;;-7.41;68.77
35307;BME280;21420;52.196;21.416;2022-11-20T05:28:23;100064.09;;;-7.40;68.83
35307;BME280;21420;52.196;21.416;2022-11-20T05:30:49;100057.72;;;-7.39;68.83
35307;BME280;21420;52.196;21.416;2022-11-20T05:33:16;100060.69;;;-7.38;68.85
35307;BME280;21420;52.196;21.416;2022-11-20T05:35:43;100062.75;;;-7.40;68.79
35307;BME280;21420;52.196;21.416;2022-11-20T05:38:10;100070.67;;;-7.43;68.71
35307;BME280;21420;52.196;21.416;2022-11-20T05:40:36;100063.92;;;-7.45;68.70
35307;BME280;21420;52.196;21.416;2022-11-20T05:43:02;100070.08;;;-7.45;68.73
35307;BME280;21420;52.196;21.416;2022-11-20T05:45:29;100063.64;;;-7.46;68.70
35307;BME280;21420;52.196;21.416;2022-11-20T05:48:00;100061.52;;;-7.47;68.70
35307;BME280;21420;52.196;21.416;2022-11-20T05:50:27;100060.39;;;-7.48;68.68
35307;BME280;21420;52.196;21.416;2022-11-20T05:52:53;100053.47;;;-7.49;68.66
35307;BME280;21420;52.196;21.416;2022-11-20T05:55:19;100055.54;;;-7.51;68.64
35307;BME280;21420;52.196;21.416;2022-11-20T05:57:49;100049.10;;;-7.53;68.65
35307;BME280;21420;52.196;21.416;2022-11-20T06:00:15;100045.64;;;-7.54;68.65
35307;BME280;21420;52.196;21.416;2022-11-20T06:02:42;100049.10;;;-7.53;68.66
35307;BME280;21420;52.196;21.416;2022-11-20T06:05:08;100046.66;;;-7.55;68.68
35307;BME280;21420;52.196;21.416;2022-11-20T06:07:34;100049.31;;;-7.55;68.71
35307;BME280;21420;52.196;21.416;2022-11-20T06:10:00;100043.26;;;-7.52;68.73
35307;BME280;21420;52.196;21.416;2022-11-20T06:12:26;100044.06;;;-7.52;68.81
35307;BME280;21420;52.196;21.416;2022-11-20T06:14:52;100046.81;;;-7.49;68.86
35307;BME280;21420;52.196;21.416;2022-11-20T06:17:18;100048.80;;;-7.45;68.91
35307;BME280;21420;52.196;21.416;2022-11-20T06:19:45;100049.14;;;-7.41;68.98
35307;BME280;21420;52.196;21.416;2022-11-20T06:22:11;100054.03;;;-7.38;69.02
35307;BME280;21420;52.196;21.416;2022-11-20T06:24:37;100051.28;;;-7.31;69.02
35307;BME280;21420;52.196;21.416;2022-11-20T06:27:07;100048.00;;;-7.24;69.05
35307;BME280;21420;52.196;21.416;2022-11-20T06:29:31;100049.58;;;-7.14;69.08
35307;BME280;21420;52.196;21.416;2022-11-20T06:31:57;100050.78;;;-6.98;69.15
35307;BME280;21420;52.196;21.416;2022-11-20T06:34:23;100052.31;;;-6.91;69.07
35307;BME280;21420;52.196;21.416;2022-11-20T06:36:49;100048.07;;;-6.89;69.00
35307;BME280;21420;52.196;21.416;2022-11-20T06:39:16;100053.08;;;-6.81;69.06
35307;BME280;21420;52.196;21.416;2022-11-20T06:41:42;100047.01;;;-6.67;69.20
35307;BME280;21420;52.196;21.416;2022-11-20T06:44:08;100045.98;;;-6.42;69.36
35307;BME280;21420;52.196;21.416;2022-11-20T06:46:34;100041.27;;;-6.26;69.36
35307;BME280;21420;52.196;21.416;2022-11-20T06:49:00;100043.63;;;-6.03;69.47
35307;BME280;21420;52.196;21.416;2022-11-20T06:51:26;100048.36;;;-5.53;69.93
35307;BME280;21420;52.196;21.416;2022-11-20T06:53:53;100040.91;;;-4.91;70.26
35307;BME280;21420;52.196;21.416;2022-11-20T06:56:20;100040.03;;;-4.27;70.47
35307;BME280;21420;52.196;21.416;2022-11-20T06:58:46;100036.23;;;-3.67;70.55
35307;BME280;21420;52.196;21.416;2022-11-20T07:01:14;100037.66;;;-3.10;70.64
35307;BME280;21420;52.196;21.416;2022-11-20T07:03:41;100035.95;;;-2.55;70.60
35307;BME280;21420;52.196;21.416;2022-11-20T07:06:08;100033.62;;;-1.98;70.64
35307;BME280;21420;52.196;21.416;2022-11-20T07:08:35;100030.58;;;-1.57;70.30
35307;BME280;21420;52.196;21.416;2022-11-20T07:11:06;100031.98;;;-1.29;69.94
35307;BME280;21420;52.196;21.416;2022-11-20T07:13:33;100033.11;;;-1.04;69.67
35307;BME280;21420;52.196;21.416;2022-11-20T07:16:05;100033.95;;;-0.80;69.41
35307;BME280;21420;52.196;21.416;2022-11-20T07:18:34;100035.55;;;-0.59;69.27
35307;BME280;21420;52.196;21.416;2022-11-20T07:21:02;100036.34;;;-0.38;69.05
35307;BME280;21420;52.196;21.416;2022-11-20T07:23:29;100031.73;;;-0.17;69.00
35307;BME280;21420;52.196;21.416;2022-11-20T07:25:55;100023.56;;;0.09;69.00
35307;BME280;21420;52.196;21.416;2022-11-20T07:28:21;100021.33;;;0.31;68.77
35307;BME280;21420;52.196;21.416;2022-11-20T07:30:51;100020.69;;;0.55;68.67
35307;BME280;21420;52.196;21.416;2022-11-20T07:33:19;100022.27;;;0.64;68.17
35307;BME280;21420;52.196;21.416;2022-11-20T07:35:45;100011.20;;;0.62;67.89
35307;BME280;21420;52.196;21.416;2022-11-20T07:38:12;100019.11;;;0.93;68.26
35307;BME280;21420;52.196;21.416;2022-11-20T07:40:39;100016.02;;;1.08;67.93
35307;BME280;21420;52.196;21.416;2022-11-20T07:43:05;100027.31;;;1.12;67.49
35307;BME280;21420;52.196;21.416;2022-11-20T07:45:31;100019.41;;;1.23;67.59
35307;BME280;21420;52.196;21.416;2022-11-20T07:47:57;100022.45;;;1.46;67.75
35307;BME280;21420;52.196;21.416;2022-11-20T07:50:23;100016.53;;;1.76;67.75
35307;BME280;21420;52.196;21.416;2022-11-20T07:52:50;100019.67;;;2.07;67.76
35307;BME280;21420;52.196;21.416;2022-11-20T07:55:16;100017.80;;;2.07;67.25
35307;BME280;21420;52.196;21.416;2022-11-20T07:57:42;100019.19;;;2.26;67.05
35307;BME280;21420;52.196;21.416;2022-11-20T08:00:11;100017.69;;;2.39;67.19
35307;BME280;21420;52.196;21.416;2022-11-20T08:02:41;100015.14;;;2.67;67.22
35307;BME280;21420;52.196;21.416;2022-11-20T08:05:09;100010.04;;;2.84;66.79
35307;BME280;21420;52.196;21.416;2022-11-20T08:07:38;100007.34;;;2.84;66.53
35307;BME280;21420;52.196;21.416;2022-11-20T08:10:06;100010.84;;;3.20;67.01
35307;BME280;21420;52.196;21.416;2022-11-20T08:12:33;100003.52;;;3.53;67.02
35307;BME280;21420;52.196;21.416;2022-11-20T08:15:18;100001.28;;;3.58;66.27
35307;BME280;21420;52.196;21.416;2022-11-20T08:17:45;100003.81;;;3.52;65.61
35307;BME280;21420;52.196;21.416;2022-11-20T08:20:11;100002.13;;;3.56;65.95
35307;BME280;21420;52.196;21.416;2022-11-20T08:22:37;100004.34;;;3.68;65.85
35307;BME280;21420;52.196;21.416;2022-11-20T08:25:04;100000.91;;;3.92;66.10
35307;BME280;21420;52.196;21.416;2022-11-20T08:27:31;100002.50;;;4.07;65.92
35307;BME280;21420;52.196;21.416;2022-11-20T08:29:58;100000.66;;;4.19;65.84
35307;BME280;21420;52.196;21.416;2022-11-20T08:32:24;99998.17;;;4.59;66.17
35307;BME280;21420;52.196;21.416;2022-11-20T08:34:52;100003.46;;;4.78;65.55
35307;BME280;21420;52.196;21.416;2022-11-20T08:37:18;99993.86;;;4.94;65.36
35307;BME280;21420;52.196;21.416;2022-11-20T08:39:44;99998.28;;;4.90;64.79
35307;BME280;21420;52.196;21.416;2022-11-20T08:42:12;99990.94;;;4.91;64.71
35307;BME280;21420;52.196;21.416;2022-11-20T08:44:38;99998.12;;;5.09;65.02
35307;BME280;21420;52.196;21.416;2022-11-20T08:47:04;99999.22;;;5.31;65.07
35307;BME280;21420;52.196;21.416;2022-11-20T08:49:31;99997.18;;;5.48;64.87
35307;BME280;21420;52.196;21.416;2022-11-20T08:51:57;99993.69;;;5.56;64.78
35307;BME280;21420;52.196;21.416;2022-11-20T08:54:23;99982.23;;;5.79;64.79
35307;BME280;21420;52.196;21.416;2022-11-20T08:56:49;99981.26;;;5.75;64.25
35307;BME280;21420;52.196;21.416;2022-11-20T08:59:15;99977.08;;;5.89;64.39
35307;BME280;21420;52.196;21.416;2022-11-20T09:01:42;99984.43;;;6.37;65.22
35307;BME280;21420;52.196;21.416;2022-11-20T09:04:10;99982.13;;;6.50;64.30
35307;BME280;21420;52.196;21.416;2022-11-20T09:06:37;99980.80;;;6.13;63.58
35307;BME280;21420;52.196;21.416;2022-11-20T09:09:03;99976.94;;;5.31;63.07
35307;BME280;21420;52.196;21.416;2022-11-20T09:11:29;99969.55;;;4.28;62.89
35307;BME280;21420;52.196;21.416;2022-11-20T09:13:55;99963.72;;;3.68;63.17
35307;BME280;21420;52.196;21.416;2022-11-20T09:16:22;99959.29;;;3.28;63.70
35307;BME280;21420;52.196;21.416;2022-11-20T09:18:50;99958.75;;;3.12;64.22
35307;BME280;21420;52.196;21.416;2022-11-20T09:21:16;99958.05;;;2.87;63.82
35307;BME280;21420;52.196;21.416;2022-11-20T09:23:44;99958.50;;;2.59;64.02
35307;BME280;21420;52.196;21.416;2022-11-20T09:26:13;99955.45;;;2.25;63.93
35307;BME280;21420;52.196;21.416;2022-11-20T09:28:40;99959.67;;;1.88;63.73
35307;BME280;21420;52.196;21.416;2022-11-20T09:31:07;99959.69;;;1.62;64.04
35307;BME280;21420;52.196;21.416;2022-11-20T09:33:35;99951.03;;;1.38;64.18
35307;BME280;21420;52.196;21.416;2022-11-20T09:36:02;99944.65;;;1.29;64.59
35307;BME280;21420;52.196;21.416;2022-11-20T09:38:29;99940.38;;;1.23;64.67
35307;BME280;21420;52.196;21.416;2022-11-20T09:41:03;99938.31;;;1.12;64.82
35307;BME280;21420;52.196;21.416;2022-11-20T09:46:29;99934.38;;;1.02;64.89
35307;BME280;21420;52.196;21.416;2022-11-20T09:51:59;99927.48;;;0.86;64.99
35307;BME280;21420;52.196;21.416;2022-11-20T09:54:30;99930.53;;;0.79;65.13
35307;BME280;21420;52.196;21.416;2022-11-20T09:57:09;99930.55;;;0.74;65.00
35307;BME280;21420;52.196;21.416;2022-11-20T09:59:40;99922.75;;;0.70;65.12
35307;BME280;21420;52.196;21.416;2022-11-20T10:05:12;99920.61;;;0.69;65.22
35307;BME280;21420;52.196;21.416;2022-11-20T10:10:53;99913.14;;;1.24;65.64
35307;BME280;21420;52.196;21.416;2022-11-20T10:13:47;99913.66;;;2.56;66.85
35307;BME280;21420;52.196;21.416;2022-11-20T10:19:52;99909.45;;;4.73;66.26
35307;BME280;21420;52.196;21.416;2022-11-20T10:25:20;99898.92;;;5.66;65.39
35307;BME280;21420;52.196;21.416;2022-11-20T10:30:31;99905.88;;;6.96;65.83
35307;BME280;21420;52.196;21.416;2022-11-20T10:33:10;99904.01;;;7.12;64.67
35307;BME280;21420;52.196;21.416;2022-11-20T10:35:35;99878.44;;;7.19;64.33
35307;BME280;21420;52.196;21.416;2022-11-20T10:38:09;99901.39;;;7.00;63.37
35307;BME280;21420;52.196;21.416;2022-11-20T10:44:15;99904.39;;;6.66;62.95
35307;BME280;21420;52.196;21.416;2022-11-20T10:46:08;99886.19;;;6.73;63.90
35307;BME280;21420;52.196;21.416;2022-11-20T10:48:38;99895.02;;;7.11;63.40
35307;BME280;21420;52.196;21.416;2022-11-20T10:56:50;99883.38;;;7.93;64.16
35307;BME280;21420;52.196;21.416;2022-11-20T11:02:31;99879.08;;;7.92;62.48
35307;BME280;21420;52.196;21.416;2022-11-20T11:05:08;99876.93;;;7.39;61.67
35307;BME280;21420;52.196;21.416;2022-11-20T11:07:36;99874.70;;;7.00;62.04
35307;BME280;21420;52.196;21.416;2022-11-20T11:10:19;99875.34;;;7.29;63.35
35307;BME280;21420;52.196;21.416;2022-11-20T11:12:48;99877.28;;;7.52;62.93
35307;BME280;21420;52.196;21.416;2022-11-20T11:15:29;99870.97;;;7.45;62.72
35307;BME280;21420;52.196;21.416;2022-11-20T11:17:58;99871.70;;;7.40;62.49
35307;BME280;21420;52.196;21.416;2022-11-20T11:20:25;99873.22;;;7.58;62.99
35307;BME280;21420;52.196;21.416;2022-11-20T11:26:04;99876.36;;;7.39;62.02
35307;BME280;21420;52.196;21.416;2022-11-20T11:28:33;99881.89;;;7.75;63.21
35307;BME280;21420;52.196;21.416;2022-11-20T11:30:59;99877.80;;;7.75;62.23
35307;BME280;21420;52.196;21.416;2022-11-20T11:33:30;99868.53;;;7.53;61.97
35307;BME280;21420;52.196;21.416;2022-11-20T11:36:01;99868.62;;;7.65;62.55
35307;BME280;21420;52.196;21.416;2022-11-20T11:38:30;99864.87;;;7.78;62.43
35307;BME280;21420;52.196;21.416;2022-11-20T11:41:06;99864.06;;;7.63;62.07
35307;BME280;21420;52.196;21.416;2022-11-20T11:43:36;99856.64;;;7.87;63.06
35307;BME280;21420;52.196;21.416;2022-11-20T11:46:30;99853.71;;;8.07;62.71
35307;BME280;21420;52.196;21.416;2022-11-20T11:55:07;99861.73;;;8.18;62.18
35307;BME280;21420;52.196;21.416;2022-11-20T12:00:18;99853.00;;;7.68;61.22
35307;BME280;21420;52.196;21.416;2022-11-20T12:02:52;99849.84;;;7.57;61.69
35307;BME280;21420;52.196;21.416;2022-11-20T12:05:31;99848.45;;;7.42;61.28
35307;BME280;21420;52.196;21.416;2022-11-20T12:09:08;99844.44;;;7.25;61.53
35307;BME280;21420;52.196;21.416;2022-11-20T12:11:43;99838.95;;;7.19;61.60
35307;BME280;21420;52.196;21.416;2022-11-20T12:14:35;99841.16;;;6.70;62.07
35307;BME280;21420;52.196;21.416;2022-11-20T12:17:03;99846.61;;;6.35;61.64
35307;BME280;21420;52.196;21.416;2022-11-20T12:19:31;99842.48;;;6.37;62.17
35307;BME280;21420;52.196;21.416;2022-11-20T12:25:27;99831.38;;;5.90;62.07
35307;BME280;21420;52.196;21.416;2022-11-20T12:30:41;99839.76;;;4.94;61.27
35307;BME280;21420;52.196;21.416;2022-11-20T12:45:21;99825.95;;;2.95;61.42
35307;BME280;21420;52.196;21.416;2022-11-20T12:59:27;99804.73;;;2.71;62.75
35307;BME280;21420;52.196;21.416;2022-11-20T13:02:25;99803.06;;;2.89;62.74
35307;BME280;21420;52.196;21.416;2022-11-20T13:08:12;99799.74;;;2.92;62.48
35307;BME280;21420;52.196;21.416;2022-11-20T13:10:46;99806.20;;;2.80;62.44
35307;BME280;21420;52.196;21.416;2022-11-20T13:16:01;99803.97;;;2.52;62.39
35307;BME280;21420;52.196;21.416;2022-11-20T13:18:33;99803.02;;;2.62;62.78
35307;BME280;21420;52.196;21.416;2022-11-20T13:21:00;99793.22;;;2.66;62.56
35307;BME280;21420;52.196;21.416;2022-11-20T13:23:28;99799.11;;;2.52;62.26
35307;BME280;21420;52.196;21.416;2022-11-20T13:26:12;99789.48;;;2.29;62.10
35307;BME280;21420;52.196;21.416;2022-11-20T13:28:46;99783.34;;;2.07;62.04
35307;BME280;21420;52.196;21.416;2022-11-20T13:31:34;99789.78;;;1.92;62.37
35307;BME280;21420;52.196;21.416;2022-11-20T13:34:04;99787.22;;;1.82;62.53
35307;BME280;21420;52.196;21.416;2022-11-20T13:36:32;99790.95;;;1.67;62.42
35307;BME280;21420;52.196;21.416;2022-11-20T13:39:00;99794.16;;;1.48;62.43
35307;BME280;21420;52.196;21.416;2022-11-20T13:41:31;99790.81;;;1.34;62.50
35307;BME280;21420;52.196;21.416;2022-11-20T13:47:00;99786.91;;;1.21;62.69
35307;BME280;21420;52.196;21.416;2022-11-20T13:49:32;99778.54;;;0.99;62.54
35307;BME280;21420;52.196;21.416;2022-11-20T13:55:33;99780.25;;;0.63;62.57
35307;BME280;21420;52.196;21.416;2022-11-20T14:01:26;99774.88;;;0.34;63.10
35307;BME280;21420;52.196;21.416;2022-11-20T14:03:54;99781.09;;;0.29;63.03
35307;BME280;21420;52.196;21.416;2022-11-20T14:06:29;99785.27;;;0.14;62.84
35307;BME280;21420;52.196;21.416;2022-11-20T14:08:57;99779.39;;;0.04;62.92
35307;BME280;21420;52.196;21.416;2022-11-20T14:11:29;99777.34;;;-0.07;62.88
35307;BME280;21420;52.196;21.416;2022-11-20T14:14:02;99775.76;;;-0.13;62.95
35307;BME280;21420;52.196;21.416;2022-11-20T14:16:35;99772.87;;;-0.24;62.92
35307;BME280;21420;52.196;21.416;2022-11-20T14:21:52;99775.15;;;-0.47;62.91
35307;BME280;21420;52.196;21.416;2022-11-20T14:24:35;99770.39;;;-0.62;62.88
35307;BME280;21420;52.196;21.416;2022-11-20T14:27:02;99761.58;;;-0.84;62.86
35307;BME280;21420;52.196;21.416;2022-11-20T14:29:33;99758.68;;;-0.97;62.92
35307;BME280;21420;52.196;21.416;2022-11-20T14:32:02;99759.54;;;-1.10;63.05
35307;BME280;21420;52.196;21.416;2022-11-20T14:34:32;99752.30;;;-1.14;63.30
35307;BME280;21420;52.196;21.416;2022-11-20T14:37:01;99751.23;;;-1.21;63.36
35307;BME280;21420;52.196;21.416;2022-11-20T14:39:36;99749.61;;;-1.22;63.60
35307;BME280;21420;52.196;21.416;2022-11-20T14:42:15;99740.78;;;-1.28;63.56